sensor_id;sensor_type;location;lat;lon;timestamp;temperature;humidity
678;DHT22;321;48.814;9.132;2023-02-11T00:00:59;0.40;99.90
678;DHT22;321;48.814;9.132;2023-02-11T00:03:25;0.40;99.90
678;DHT22;321;48.814;9.132;2023-02-11T00:06:01;0.30;99.90
678;DHT22;321;48.814;9.132;2023-02-11T00:08:27;0.30;99.90
678;DHT22;321;48.814;9.132;2023-02-11T00:10:54;0.10;99.90
678;DHT22;321;48.814;9.132;2023-02-11T00:13:20;0.30;99.90
678;DHT22;321;48.814;9.132;2023-02-11T00:15:46;0.30;99.90
678;DHT22;321;48.814;9.132;2023-02-11T00:18:12;0.30;99.90
678;DHT22;321;48.814;9.132;2023-02-11T00:20:38;0.30;99.90
678;DHT22;321;48.814;9.132;2023-02-11T00:23:04;0.30;99.90
678;DHT22;321;48.814;9.132;2023-02-11T00:25:29;0.40;99.90
678;DHT22;321;48.814;9.132;2023-02-11T00:27:55;0.40;99.90
678;DHT22;321;48.814;9.132;2023-02-11T00:30:20;0.40;99.90
678;DHT22;321;48.814;9.132;2023-02-11T00:32:46;0.40;99.90
678;DHT22;321;48.814;9.132;2023-02-11T00:35:11;0.40;99.90
678;DHT22;321;48.814;9.132;2023-02-11T00:37:37;0.30;99.90
678;DHT22;321;48.814;9.132;2023-02-11T00:40:03;0.10;99.90
678;DHT22;321;48.814;9.132;2023-02-11T00:42:29;0.10;99.90
678;DHT22;321;48.814;9.132;2023-02-11T00:44:55;-0.10;99.90
678;DHT22;321;48.814;9.132;2023-02-11T00:47:20;-0.10;99.90
678;DHT22;321;48.814;9.132;2023-02-11T00:49:46;0.10;99.90
678;DHT22;321;48.814;9.132;2023-02-11T00:52:11;0.20;99.90
678;DHT22;321;48.814;9.132;2023-02-11T00:54:37;0.20;99.90
678;DHT22;321;48.814;9.132;2023-02-11T00:57:02;0.30;99.90
678;DHT22;321;48.814;9.132;2023-02-11T00:59:28;0.30;99.90
678;DHT22;321;48.814;9.132;2023-02-11T01:01:53;0.30;99.90
678;DHT22;321;48.814;9.132;2023-02-11T01:04:19;0.30;99.90
678;DHT22;321;48.814;9.132;2023-02-11T01:06:45;0.20;99.90
678;DHT22;321;48.814;9.132;2023-02-11T01:09:10;0.10;99.90
678;DHT22;321;48.814;9.132;2023-02-11T01:14:02;0.10;99.90
678;DHT22;321;48.814;9.132;2023-02-11T01:16:27;0.20;99.90
678;DHT22;321;48.814;9.132;2023-02-11T01:18:53;0.20;99.90
678;DHT22;321;48.814;9.132;2023-02-11T01:21:19;0.20;99.90
678;DHT22;321;48.814;9.132;2023-02-11T01:23:44;0.20;99.90
678;DHT22;321;48.814;9.132;2023-02-11T01:26:10;0.20;99.90
678;DHT22;321;48.814;9.132;2023-02-11T01:28:35;0.20;99.90
678;DHT22;321;48.814;9.132;2023-02-11T01:31:01;0.20;99.90
678;DHT22;321;48.814;9.132;2023-02-11T01:33:28;0.30;99.90
678;DHT22;321;48.814;9.132;2023-02-11T01:35:53;0.20;99.90
678;DHT22;321;48.814;9.132;2023-02-11T01:38:24;0.20;99.90
678;DHT22;321;48.814;9.132;2023-02-11T01:40:56;0.20;99.90
678;DHT22;321;48.814;9.132;2023-02-11T01:43:24;0.20;99.90
678;DHT22;321;48.814;9.132;2023-02-11T01:48:46;0.20;99.90
678;DHT22;321;48.814;9.132;2023-02-11T01:51:17;0.20;99.90
678;DHT22;321;48.814;9.132;2023-02-11T01:53:43;0.10;99.90
678;DHT22;321;48.814;9.132;2023-02-11T01:56:30;0.10;99.90
678;DHT22;321;48.814;9.132;2023-02-11T01:59:19;0.00;99.90
678;DHT22;321;48.814;9.132;2023-02-11T02:01:52;0.30;99.90
678;DHT22;321;48.814;9.132;2023-02-11T02:04:22;0.00;99.90
678;DHT22;321;48.814;9.132;2023-02-11T02:06:56;0.10;99.90
678;DHT22;321;48.814;9.132;2023-02-11T02:09:27;0.00;99.90
678;DHT22;321;48.814;9.132;2023-02-11T02:11:53;-0.20;99.90
678;DHT22;321;48.814;9.132;2023-02-11T02:14:19;-0.30;99.90
678;DHT22;321;48.814;9.132;2023-02-11T02:16:45;-0.20;99.90
678;DHT22;321;48.814;9.132;2023-02-11T02:24:54;0.10;99.90
678;DHT22;321;48.814;9.132;2023-02-11T02:30:10;0.20;99.90
678;DHT22;321;48.814;9.132;2023-02-11T02:40:36;0.20;99.90
678;DHT22;321;48.814;9.132;2023-02-11T02:43:04;0.20;99.90
678;DHT22;321;48.814;9.132;2023-02-11T02:45:31;0.30;99.90
678;DHT22;321;48.814;9.132;2023-02-11T02:47:57;0.30;99.90
678;DHT22;321;48.814;9.132;2023-02-11T02:50:27;0.30;99.90
678;DHT22;321;48.814;9.132;2023-02-11T02:58:38;0.40;99.90
678;DHT22;321;48.814;9.132;2023-02-11T03:09:30;0.10;99.90
678;DHT22;321;48.814;9.132;2023-02-11T03:11:56;0.10;99.90
678;DHT22;321;48.814;9.132;2023-02-11T03:14:25;0.00;99.90
678;DHT22;321;48.814;9.132;2023-02-11T03:16:53;-0.10;99.90
678;DHT22;321;48.814;9.132;2023-02-11T03:19:25;-0.20;99.90
678;DHT22;321;48.814;9.132;2023-02-11T03:21:53;0.60;99.90
678;DHT22;321;48.814;9.132;2023-02-11T03:24:24;0.10;99.90
678;DHT22;321;48.814;9.132;2023-02-11T03:26:54;0.10;99.90
678;DHT22;321;48.814;9.132;2023-02-11T03:29:34;0.00;99.90
678;DHT22;321;48.814;9.132;2023-02-11T03:32:42;0.00;99.90
678;DHT22;321;48.814;9.132;2023-02-11T03:35:19;0.20;99.90
678;DHT22;321;48.814;9.132;2023-02-11T03:37:53;0.20;99.90
678;DHT22;321;48.814;9.132;2023-02-11T03:40:26;0.20;99.90
678;DHT22;321;48.814;9.132;2023-02-11T03:43:00;0.20;99.90
678;DHT22;321;48.814;9.132;2023-02-11T03:45:27;0.30;99.90
678;DHT22;321;48.814;9.132;2023-02-11T03:48:00;0.10;99.90
678;DHT22;321;48.814;9.132;2023-02-11T03:50:30;0.10;99.90
678;DHT22;321;48.814;9.132;2023-02-11T03:52:58;0.20;99.90
678;DHT22;321;48.814;9.132;2023-02-11T03:55:25;0.20;99.90
678;DHT22;321;48.814;9.132;2023-02-11T03:57:52;0.30;99.90
678;DHT22;321;48.814;9.132;2023-02-11T04:00:18;0.30;99.90
678;DHT22;321;48.814;9.132;2023-02-11T04:02:44;0.20;99.90
678;DHT22;321;48.814;9.132;2023-02-11T04:05:12;0.10;99.90
678;DHT22;321;48.814;9.132;2023-02-11T04:07:37;0.20;99.90
678;DHT22;321;48.814;9.132;2023-02-11T04:10:04;0.40;99.90
678;DHT22;321;48.814;9.132;2023-02-11T04:12:29;0.50;99.90
678;DHT22;321;48.814;9.132;2023-02-11T04:14:55;0.60;99.90
678;DHT22;321;48.814;9.132;2023-02-11T04:17:20;0.70;99.90
678;DHT22;321;48.814;9.132;2023-02-11T04:19:46;0.90;99.90
678;DHT22;321;48.814;9.132;2023-02-11T04:22:11;0.90;99.90
678;DHT22;321;48.814;9.132;2023-02-11T04:24:37;1.00;99.90
678;DHT22;321;48.814;9.132;2023-02-11T04:27:03;1.10;99.90
678;DHT22;321;48.814;9.132;2023-02-11T04:29:28;1.10;99.90
678;DHT22;321;48.814;9.132;2023-02-11T04:31:54;1.40;99.90
678;DHT22;321;48.814;9.132;2023-02-11T04:34:21;1.20;99.90
678;DHT22;321;48.814;9.132;2023-02-11T04:36:48;1.10;99.90
678;DHT22;321;48.814;9.132;2023-02-11T04:39:14;1.20;99.90
678;DHT22;321;48.814;9.132;2023-02-11T04:41:39;1.20;99.90
678;DHT22;321;48.814;9.132;2023-02-11T04:44:05;1.20;99.90
678;DHT22;321;48.814;9.132;2023-02-11T04:46:31;1.30;99.90
678;DHT22;321;48.814;9.132;2023-02-11T04:48:56;1.40;99.90
678;DHT22;321;48.814;9.132;2023-02-11T04:51:22;1.50;99.90
678;DHT22;321;48.814;9.132;2023-02-11T04:53:48;1.50;99.90
678;DHT22;321;48.814;9.132;2023-02-11T04:56:14;1.50;99.90
678;DHT22;321;48.814;9.132;2023-02-11T04:58:39;1.60;99.90
678;DHT22;321;48.814;9.132;2023-02-11T05:01:10;1.60;99.90
678;DHT22;321;48.814;9.132;2023-02-11T05:03:36;1.50;99.90
678;DHT22;321;48.814;9.132;2023-02-11T05:06:02;1.50;99.90
678;DHT22;321;48.814;9.132;2023-02-11T05:08:29;1.80;99.90
678;DHT22;321;48.814;9.132;2023-02-11T05:10:54;1.80;99.90
678;DHT22;321;48.814;9.132;2023-02-11T05:13:20;2.00;99.90
678;DHT22;321;48.814;9.132;2023-02-11T05:15:45;2.00;99.90
678;DHT22;321;48.814;9.132;2023-02-11T05:18:11;1.90;99.90
678;DHT22;321;48.814;9.132;2023-02-11T05:20:39;2.00;99.90
678;DHT22;321;48.814;9.132;2023-02-11T05:23:05;2.10;99.90
678;DHT22;321;48.814;9.132;2023-02-11T05:25:30;2.00;99.90
678;DHT22;321;48.814;9.132;2023-02-11T05:27:56;2.00;99.90
678;DHT22;321;48.814;9.132;2023-02-11T05:30:21;2.00;99.90
678;DHT22;321;48.814;9.132;2023-02-11T05:32:47;2.10;99.90
678;DHT22;321;48.814;9.132;2023-02-11T05:35:12;2.20;99.90
678;DHT22;321;48.814;9.132;2023-02-11T05:37:38;2.20;99.90
678;DHT22;321;48.814;9.132;2023-02-11T05:40:04;2.30;99.90
678;DHT22;321;48.814;9.132;2023-02-11T05:42:30;2.30;99.90
678;DHT22;321;48.814;9.132;2023-02-11T05:44:55;2.20;99.90
678;DHT22;321;48.814;9.132;2023-02-11T05:47:21;2.10;99.90
678;DHT22;321;48.814;9.132;2023-02-11T05:49:46;2.20;99.90
678;DHT22;321;48.814;9.132;2023-02-11T05:52:12;2.30;99.90
678;DHT22;321;48.814;9.132;2023-02-11T05:54:37;2.20;99.90
678;DHT22;321;48.814;9.132;2023-02-11T05:57:03;2.90;99.90
678;DHT22;321;48.814;9.132;2023-02-11T05:59:29;2.20;99.90
678;DHT22;321;48.814;9.132;2023-02-11T06:01:54;2.30;99.90
678;DHT22;321;48.814;9.132;2023-02-11T06:04:20;2.40;99.90
678;DHT22;321;48.814;9.132;2023-02-11T06:06:46;2.40;99.90
678;DHT22;321;48.814;9.132;2023-02-11T06:09:11;2.40;99.90
678;DHT22;321;48.814;9.132;2023-02-11T06:11:37;2.40;99.90
678;DHT22;321;48.814;9.132;2023-02-11T06:14:02;2.50;99.90
678;DHT22;321;48.814;9.132;2023-02-11T06:16:28;2.40;99.90
678;DHT22;321;48.814;9.132;2023-02-11T06:18:53;2.40;99.90
678;DHT22;321;48.814;9.132;2023-02-11T06:21:19;2.50;99.90
678;DHT22;321;48.814;9.132;2023-02-11T06:23:44;2.50;99.90
678;DHT22;321;48.814;9.132;2023-02-11T06:26:16;2.60;99.90
678;DHT22;321;48.814;9.132;2023-02-11T06:28:43;2.60;99.90
678;DHT22;321;48.814;9.132;2023-02-11T06:31:08;2.70;99.90
678;DHT22;321;48.814;9.132;2023-02-11T06:33:34;2.60;99.90
678;DHT22;321;48.814;9.132;2023-02-11T06:36:00;2.70;99.90
678;DHT22;321;48.814;9.132;2023-02-11T06:38:26;2.70;99.90
678;DHT22;321;48.814;9.132;2023-02-11T06:40:52;2.70;99.90
678;DHT22;321;48.814;9.132;2023-02-11T06:43:17;2.50;99.90
678;DHT22;321;48.814;9.132;2023-02-11T06:45:43;2.60;99.90
678;DHT22;321;48.814;9.132;2023-02-11T06:48:08;2.60;99.90
678;DHT22;321;48.814;9.132;2023-02-11T06:50:34;2.70;99.90
678;DHT22;321;48.814;9.132;2023-02-11T06:52:59;2.70;99.90
678;DHT22;321;48.814;9.132;2023-02-11T06:55:25;2.90;99.90
678;DHT22;321;48.814;9.132;2023-02-11T06:57:51;2.90;99.90
678;DHT22;321;48.814;9.132;2023-02-11T07:00:17;3.00;99.90
678;DHT22;321;48.814;9.132;2023-02-11T07:02:42;3.00;99.90
678;DHT22;321;48.814;9.132;2023-02-11T07:05:08;3.00;99.90
678;DHT22;321;48.814;9.132;2023-02-11T07:07:35;3.00;99.90
678;DHT22;321;48.814;9.132;2023-02-11T07:10:01;3.00;99.90
678;DHT22;321;48.814;9.132;2023-02-11T07:12:28;3.10;99.90
678;DHT22;321;48.814;9.132;2023-02-11T07:14:55;3.10;99.90
678;DHT22;321;48.814;9.132;2023-02-11T07:17:21;3.20;99.90
678;DHT22;321;48.814;9.132;2023-02-11T07:19:47;3.10;99.90
678;DHT22;321;48.814;9.132;2023-02-11T07:22:12;3.10;99.90
678;DHT22;321;48.814;9.132;2023-02-11T07:24:38;3.10;99.90
678;DHT22;321;48.814;9.132;2023-02-11T07:27:03;3.00;99.90
678;DHT22;321;48.814;9.132;2023-02-11T07:29:29;3.10;99.90
678;DHT22;321;48.814;9.132;2023-02-11T07:31:54;3.20;99.90
678;DHT22;321;48.814;9.132;2023-02-11T07:34:20;3.40;99.90
678;DHT22;321;48.814;9.132;2023-02-11T07:36:45;3.40;99.90
678;DHT22;321;48.814;9.132;2023-02-11T07:39:13;3.40;99.90
678;DHT22;321;48.814;9.132;2023-02-11T07:41:39;3.50;99.90
678;DHT22;321;48.814;9.132;2023-02-11T07:44:04;3.50;99.90
678;DHT22;321;48.814;9.132;2023-02-11T07:46:31;3.60;99.90
678;DHT22;321;48.814;9.132;2023-02-11T07:48:57;3.70;99.90
678;DHT22;321;48.814;9.132;2023-02-11T07:51:25;3.80;99.90
678;DHT22;321;48.814;9.132;2023-02-11T07:53:51;3.90;99.90
678;DHT22;321;48.814;9.132;2023-02-11T07:56:18;4.10;99.90
678;DHT22;321;48.814;9.132;2023-02-11T07:58:44;4.10;99.90
678;DHT22;321;48.814;9.132;2023-02-11T08:01:13;4.20;99.90
678;DHT22;321;48.814;9.132;2023-02-11T08:03:39;4.30;99.90
678;DHT22;321;48.814;9.132;2023-02-11T08:06:10;4.30;99.90
678;DHT22;321;48.814;9.132;2023-02-11T08:08:35;4.40;99.90
678;DHT22;321;48.814;9.132;2023-02-11T08:11:12;4.60;99.90
678;DHT22;321;48.814;9.132;2023-02-11T08:13:38;4.70;99.90
678;DHT22;321;48.814;9.132;2023-02-11T08:16:04;4.70;99.90
678;DHT22;321;48.814;9.132;2023-02-11T08:18:31;4.80;99.90
678;DHT22;321;48.814;9.132;2023-02-11T08:21:07;4.90;99.90
678;DHT22;321;48.814;9.132;2023-02-11T08:23:35;5.00;99.90
678;DHT22;321;48.814;9.132;2023-02-11T08:26:02;5.20;99.90
678;DHT22;321;48.814;9.132;2023-02-11T08:28:28;5.20;99.90
678;DHT22;321;48.814;9.132;2023-02-11T08:30:54;5.20;99.90
678;DHT22;321;48.814;9.132;2023-02-11T08:33:19;5.10;99.90
678;DHT22;321;48.814;9.132;2023-02-11T08:35:45;5.30;99.90
678;DHT22;321;48.814;9.132;2023-02-11T08:38:10;5.30;99.90
678;DHT22;321;48.814;9.132;2023-02-11T08:40:36;5.30;99.90
678;DHT22;321;48.814;9.132;2023-02-11T08:43:02;5.30;99.90
678;DHT22;321;48.814;9.132;2023-02-11T08:45:27;5.30;99.90
678;DHT22;321;48.814;9.132;2023-02-11T08:47:53;5.30;99.90
678;DHT22;321;48.814;9.132;2023-02-11T08:50:18;5.50;99.90
678;DHT22;321;48.814;9.132;2023-02-11T08:52:44;5.50;99.90
678;DHT22;321;48.814;9.132;2023-02-11T08:55:10;5.60;99.90
678;DHT22;321;48.814;9.132;2023-02-11T08:57:35;5.80;99.90
678;DHT22;321;48.814;9.132;2023-02-11T09:00:01;5.90;99.90
678;DHT22;321;48.814;9.132;2023-02-11T09:02:26;5.90;99.90
678;DHT22;321;48.814;9.132;2023-02-11T09:04:52;5.90;99.90
678;DHT22;321;48.814;9.132;2023-02-11T09:07:17;6.00;99.90
678;DHT22;321;48.814;9.132;2023-02-11T09:09:43;5.90;99.90
678;DHT22;321;48.814;9.132;2023-02-11T09:12:09;6.00;99.90
678;DHT22;321;48.814;9.132;2023-02-11T09:14:34;6.20;99.90
678;DHT22;321;48.814;9.132;2023-02-11T09:17:00;6.20;99.90
678;DHT22;321;48.814;9.132;2023-02-11T09:19:26;6.30;99.90
678;DHT22;321;48.814;9.132;2023-02-11T09:21:51;6.40;99.90
678;DHT22;321;48.814;9.132;2023-02-11T09:24:17;6.60;99.90
678;DHT22;321;48.814;9.132;2023-02-11T09:26:43;6.70;99.90
678;DHT22;321;48.814;9.132;2023-02-11T09:29:08;6.80;99.90
678;DHT22;321;48.814;9.132;2023-02-11T09:31:34;7.10;99.90
678;DHT22;321;48.814;9.132;2023-02-11T09:34:02;7.30;99.60
678;DHT22;321;48.814;9.132;2023-02-11T09:36:32;7.50;99.30
678;DHT22;321;48.814;9.132;2023-02-11T09:38:59;7.70;99.30
678;DHT22;321;48.814;9.132;2023-02-11T09:44:24;8.00;98.40
678;DHT22;321;48.814;9.132;2023-02-11T09:47:02;8.20;97.70
678;DHT22;321;48.814;9.132;2023-02-11T09:49:39;8.40;97.30
678;DHT22;321;48.814;9.132;2023-02-11T09:52:23;8.70;97.30
678;DHT22;321;48.814;9.132;2023-02-11T09:55:02;9.10;96.40
678;DHT22;321;48.814;9.132;2023-02-11T09:57:36;9.50;97.60
678;DHT22;321;48.814;9.132;2023-02-11T10:05:18;10.20;93.70
678;DHT22;321;48.814;9.132;2023-02-11T10:08:12;10.50;92.90
678;DHT22;321;48.814;9.132;2023-02-11T10:10:49;10.60;92.80
678;DHT22;321;48.814;9.132;2023-02-11T10:13:28;10.60;92.50
678;DHT22;321;48.814;9.132;2023-02-11T10:16:14;10.60;93.10
678;DHT22;321;48.814;9.132;2023-02-11T10:21:37;10.80;91.80
678;DHT22;321;48.814;9.132;2023-02-11T10:24:10;10.90;92.30
678;DHT22;321;48.814;9.132;2023-02-11T10:26:38;11.50;92.00
678;DHT22;321;48.814;9.132;2023-02-11T10:31:58;11.10;93.70
678;DHT22;321;48.814;9.132;2023-02-11T10:34:25;10.90;92.10
678;DHT22;321;48.814;9.132;2023-02-11T10:36:52;11.00;91.80
678;DHT22;321;48.814;9.132;2023-02-11T10:39:20;11.00;91.60
678;DHT22;321;48.814;9.132;2023-02-11T10:42:01;11.00;92.00
678;DHT22;321;48.814;9.132;2023-02-11T10:44:42;10.90;97.50
678;DHT22;321;48.814;9.132;2023-02-11T10:47:17;11.10;91.40
678;DHT22;321;48.814;9.132;2023-02-11T10:49:45;11.20;91.00
678;DHT22;321;48.814;9.132;2023-02-11T10:57:37;11.50;91.20
678;DHT22;321;48.814;9.132;2023-02-11T11:00:18;11.90;90.80
678;DHT22;321;48.814;9.132;2023-02-11T11:02:55;12.10;90.80
678;DHT22;321;48.814;9.132;2023-02-11T11:05:28;12.40;90.10
678;DHT22;321;48.814;9.132;2023-02-11T11:08:06;12.50;89.80
678;DHT22;321;48.814;9.132;2023-02-11T11:10:46;12.60;88.40
678;DHT22;321;48.814;9.132;2023-02-11T11:13:31;12.70;89.80
678;DHT22;321;48.814;9.132;2023-02-11T11:18:38;13.10;89.20
678;DHT22;321;48.814;9.132;2023-02-11T11:23:37;13.40;85.10
678;DHT22;321;48.814;9.132;2023-02-11T11:28:40;13.30;84.30
678;DHT22;321;48.814;9.132;2023-02-11T11:31:34;12.90;86.70
678;DHT22;321;48.814;9.132;2023-02-11T11:34:12;12.60;87.70
678;DHT22;321;48.814;9.132;2023-02-11T11:36:39;12.50;88.70
678;DHT22;321;48.814;9.132;2023-02-11T11:39:18;12.30;89.20
678;DHT22;321;48.814;9.132;2023-02-11T11:41:56;12.60;90.70
678;DHT22;321;48.814;9.132;2023-02-11T11:44:23;12.40;89.20
678;DHT22;321;48.814;9.132;2023-02-11T11:50:10;11.70;91.00
678;DHT22;321;48.814;9.132;2023-02-11T11:57:52;12.00;92.00
678;DHT22;321;48.814;9.132;2023-02-11T12:00:21;13.00;95.20
678;DHT22;321;48.814;9.132;2023-02-11T12:03:13;12.90;90.00
678;DHT22;321;48.814;9.132;2023-02-11T12:05:56;13.00;91.20
678;DHT22;321;48.814;9.132;2023-02-11T12:09:03;13.00;89.40
678;DHT22;321;48.814;9.132;2023-02-11T12:17:05;13.40;90.40
678;DHT22;321;48.814;9.132;2023-02-11T12:22:57;13.70;87.20
678;DHT22;321;48.814;9.132;2023-02-11T12:33:59;13.80;85.90
678;DHT22;321;48.814;9.132;2023-02-11T12:36:53;13.60;88.30
678;DHT22;321;48.814;9.132;2023-02-11T12:39:36;13.10;88.30
678;DHT22;321;48.814;9.132;2023-02-11T12:42:32;13.00;87.70
678;DHT22;321;48.814;9.132;2023-02-11T12:54:03;12.50;90.30
678;DHT22;321;48.814;9.132;2023-02-11T12:59:05;12.20;90.30
678;DHT22;321;48.814;9.132;2023-02-11T13:01:38;11.80;91.80
678;DHT22;321;48.814;9.132;2023-02-11T13:06:55;11.40;92.50
678;DHT22;321;48.814;9.132;2023-02-11T13:09:25;11.20;93.70
678;DHT22;321;48.814;9.132;2023-02-11T13:11:56;10.70;98.80
678;DHT22;321;48.814;9.132;2023-02-11T13:14:27;10.90;95.10
678;DHT22;321;48.814;9.132;2023-02-11T13:16:54;11.40;94.70
678;DHT22;321;48.814;9.132;2023-02-11T13:19:43;10.70;95.30
678;DHT22;321;48.814;9.132;2023-02-11T13:22:36;10.60;95.80
678;DHT22;321;48.814;9.132;2023-02-11T13:30:42;10.10;97.20
678;DHT22;321;48.814;9.132;2023-02-11T13:40:40;10.00;98.40
678;DHT22;321;48.814;9.132;2023-02-11T13:43:21;10.00;97.90
678;DHT22;321;48.814;9.132;2023-02-11T13:45:49;9.90;97.80
678;DHT22;321;48.814;9.132;2023-02-11T13:48:25;9.70;98.60
678;DHT22;321;48.814;9.132;2023-02-11T13:50:55;9.60;98.40
678;DHT22;321;48.814;9.132;2023-02-11T13:53:22;9.50;99.90
678;DHT22;321;48.814;9.132;2023-02-11T13:55:51;9.50;99.90
678;DHT22;321;48.814;9.132;2023-02-11T14:00:54;9.60;99.90
678;DHT22;321;48.814;9.132;2023-02-11T14:06:15;9.40;99.90
678;DHT22;321;48.814;9.132;2023-02-11T14:11:44;9.20;99.90
678;DHT22;321;48.814;9.132;2023-02-11T14:14:30;9.30;99.90
678;DHT22;321;48.814;9.132;2023-02-11T14:19:36;9.30;99.90
678;DHT22;321;48.814;9.132;2023-02-11T14:22:16;9.30;99.90
678;DHT22;321;48.814;9.132;2023-02-11T14:24:53;9.20;99.90
678;DHT22;321;48.814;9.132;2023-02-11T14:38:33;9.20;99.70
678;DHT22;321;48.814;9.132;2023-02-11T14:41:10;9.10;99.70
678;DHT22;321;48.814;9.132;2023-02-11T14:43:51;9.10;99.80
678;DHT22;321;48.814;9.132;2023-02-11T14:46:19;9.00;99.90
678;DHT22;321;48.814;9.132;2023-02-11T14:48:51;8.90;99.90
678;DHT22;321;48.814;9.132;2023-02-11T14:51:23;8.90;99.90
678;DHT22;321;48.814;9.132;2023-02-11T14:53:53;9.00;99.90
678;DHT22;321;48.814;9.132;2023-02-11T14:56:22;9.20;99.90
678;DHT22;321;48.814;9.132;2023-02-11T14:58:51;9.20;99.90
678;DHT22;321;48.814;9.132;2023-02-11T15:01:45;9.20;99.90
678;DHT22;321;48.814;9.132;2023-02-11T15:04:28;9.30;99.90
678;DHT22;321;48.814;9.132;2023-02-11T15:06:56;9.30;99.90
678;DHT22;321;48.814;9.132;2023-02-11T15:09:41;9.40;99.50
678;DHT22;321;48.814;9.132;2023-02-11T15:12:19;9.40;99.70
678;DHT22;321;48.814;9.132;2023-02-11T15:14:49;9.30;99.80
678;DHT22;321;48.814;9.132;2023-02-11T15:17:20;9.20;99.90
678;DHT22;321;48.814;9.132;2023-02-11T15:19:50;9.20;99.90
678;DHT22;321;48.814;9.132;2023-02-11T15:22:23;9.10;99.90
678;DHT22;321;48.814;9.132;2023-02-11T15:25:14;8.90;99.90
678;DHT22;321;48.814;9.132;2023-02-11T15:32:53;9.00;99.90
678;DHT22;321;48.814;9.132;2023-02-11T15:35:36;8.70;99.90
678;DHT22;321;48.814;9.132;2023-02-11T15:38:03;8.70;99.90
678;DHT22;321;48.814;9.132;2023-02-11T15:40:31;8.70;99.90
678;DHT22;321;48.814;9.132;2023-02-11T15:43:02;8.70;99.90
678;DHT22;321;48.814;9.132;2023-02-11T15:45:33;8.70;99.90
678;DHT22;321;48.814;9.132;2023-02-11T15:48:23;8.80;99.90
678;DHT22;321;48.814;9.132;2023-02-11T15:50:56;8.70;99.90
678;DHT22;321;48.814;9.132;2023-02-11T15:55:57;8.70;99.90
678;DHT22;321;48.814;9.132;2023-02-11T15:58:25;8.70;99.90
678;DHT22;321;48.814;9.132;2023-02-11T16:00:51;8.60;99.90
678;DHT22;321;48.814;9.132;2023-02-11T16:03:25;8.60;99.90
678;DHT22;321;48.814;9.132;2023-02-11T16:05:53;8.70;99.90
678;DHT22;321;48.814;9.132;2023-02-11T16:08:26;8.70;99.90
678;DHT22;321;48.814;9.132;2023-02-11T16:10:59;8.80;99.90
678;DHT22;321;48.814;9.132;2023-02-11T16:13:29;8.70;99.90
678;DHT22;321;48.814;9.132;2023-02-11T16:16:02;8.70;99.90
678;DHT22;321;48.814;9.132;2023-02-11T16:20:56;8.60;99.90
678;DHT22;321;48.814;9.132;2023-02-11T16:23:36;8.50;99.90
678;DHT22;321;48.814;9.132;2023-02-11T16:26:06;8.60;99.90
678;DHT22;321;48.814;9.132;2023-02-11T16:28:34;8.60;99.90
678;DHT22;321;48.814;9.132;2023-02-11T16:31:00;8.60;99.90
678;DHT22;321;48.814;9.132;2023-02-11T16:33:26;8.70;99.90
678;DHT22;321;48.814;9.132;2023-02-11T16:35:53;8.70;99.90
678;DHT22;321;48.814;9.132;2023-02-11T16:38:18;8.70;99.90
678;DHT22;321;48.814;9.132;2023-02-11T16:40:44;8.70;99.90
678;DHT22;321;48.814;9.132;2023-02-11T16:43:13;8.70;99.90
678;DHT22;321;48.814;9.132;2023-02-11T16:45:39;8.70;99.90
678;DHT22;321;48.814;9.132;2023-02-11T16:48:06;8.70;99.90
678;DHT22;321;48.814;9.132;2023-02-11T16:50:33;8.70;99.90
678;DHT22;321;48.814;9.132;2023-02-11T16:52:59;8.70;99.90
678;DHT22;321;48.814;9.132;2023-02-11T16:55:27;8.60;99.90
678;DHT22;321;48.814;9.132;2023-02-11T16:57:52;8.60;99.90
678;DHT22;321;48.814;9.132;2023-02-11T17:00:18;8.70;99.90
678;DHT22;321;48.814;9.132;2023-02-11T17:02:44;8.70;99.90
678;DHT22;321;48.814;9.132;2023-02-11T17:05:18;8.60;99.90
678;DHT22;321;48.814;9.132;2023-02-11T17:07:44;8.60;99.90
678;DHT22;321;48.814;9.132;2023-02-11T17:10:19;8.60;99.90
678;DHT22;321;48.814;9.132;2023-02-11T17:12:45;8.60;99.90
678;DHT22;321;48.814;9.132;2023-02-11T17:15:12;8.60;99.90
678;DHT22;321;48.814;9.132;2023-02-11T17:17:38;8.50;99.90
678;DHT22;321;48.814;9.132;2023-02-11T17:20:04;8.50;99.90
678;DHT22;321;48.814;9.132;2023-02-11T17:22:30;8.50;99.90
678;DHT22;321;48.814;9.132;2023-02-11T17:24:55;8.50;99.90
678;DHT22;321;48.814;9.132;2023-02-11T17:27:21;8.50;99.90
678;DHT22;321;48.814;9.132;2023-02-11T17:29:47;8.40;99.90
678;DHT22;321;48.814;9.132;2023-02-11T17:32:13;8.40;99.90
678;DHT22;321;48.814;9.132;2023-02-11T17:34:38;8.50;99.90
678;DHT22;321;48.814;9.132;2023-02-11T17:37:04;8.50;99.90
678;DHT22;321;48.814;9.132;2023-02-11T17:39:34;8.40;99.90
678;DHT22;321;48.814;9.132;2023-02-11T17:42:00;8.40;99.90
678;DHT22;321;48.814;9.132;2023-02-11T17:44:26;8.30;99.90
678;DHT22;321;48.814;9.132;2023-02-11T17:46:52;8.30;99.90
678;DHT22;321;48.814;9.132;2023-02-11T17:49:17;8.40;99.90
678;DHT22;321;48.814;9.132;2023-02-11T17:51:44;8.50;99.90
678;DHT22;321;48.814;9.132;2023-02-11T17:54:13;8.50;99.90
678;DHT22;321;48.814;9.132;2023-02-11T17:56:40;8.50;99.90
678;DHT22;321;48.814;9.132;2023-02-11T17:59:06;8.50;99.90
678;DHT22;321;48.814;9.132;2023-02-11T18:01:33;8.50;99.90
678;DHT22;321;48.814;9.132;2023-02-11T18:04:00;8.40;99.90
678;DHT22;321;48.814;9.132;2023-02-11T18:06:26;8.30;99.90
678;DHT22;321;48.814;9.132;2023-02-11T18:08:53;8.40;99.90
678;DHT22;321;48.814;9.132;2023-02-11T18:11:22;8.40;99.90
678;DHT22;321;48.814;9.132;2023-02-11T18:13:49;8.20;99.90
678;DHT22;321;48.814;9.132;2023-02-11T18:16:19;8.20;99.90
678;DHT22;321;48.814;9.132;2023-02-11T18:18:45;8.10;99.90
678;DHT22;321;48.814;9.132;2023-02-11T18:21:13;8.10;99.90
678;DHT22;321;48.814;9.132;2023-02-11T18:23:40;8.00;99.90
678;DHT22;321;48.814;9.132;2023-02-11T18:26:10;8.00;99.90
678;DHT22;321;48.814;9.132;2023-02-11T18:28:36;8.00;99.90
678;DHT22;321;48.814;9.132;2023-02-11T18:31:02;8.00;99.90
678;DHT22;321;48.814;9.132;2023-02-11T18:33:28;8.00;99.90
678;DHT22;321;48.814;9.132;2023-02-11T18:35:54;8.00;99.90
678;DHT22;321;48.814;9.132;2023-02-11T18:38:20;8.00;99.90
678;DHT22;321;48.814;9.132;2023-02-11T18:40:47;8.10;99.90
678;DHT22;321;48.814;9.132;2023-02-11T18:43:15;8.10;99.90
678;DHT22;321;48.814;9.132;2023-02-11T18:45:45;8.10;99.90
678;DHT22;321;48.814;9.132;2023-02-11T18:48:10;8.10;99.90
678;DHT22;321;48.814;9.132;2023-02-11T18:50:39;8.10;99.90
678;DHT22;321;48.814;9.132;2023-02-11T18:53:05;8.10;99.90
678;DHT22;321;48.814;9.132;2023-02-11T18:55:30;8.10;99.90
678;DHT22;321;48.814;9.132;2023-02-11T18:57:56;8.00;99.90
678;DHT22;321;48.814;9.132;2023-02-11T19:00:22;8.10;99.90
678;DHT22;321;48.814;9.132;2023-02-11T19:02:47;8.00;99.90
678;DHT22;321;48.814;9.132;2023-02-11T19:05:13;8.00;99.90
678;DHT22;321;48.814;9.132;2023-02-11T19:07:40;8.00;99.90
678;DHT22;321;48.814;9.132;2023-02-11T19:10:06;8.00;99.90
678;DHT22;321;48.814;9.132;2023-02-11T19:12:32;8.00;99.90
678;DHT22;321;48.814;9.132;2023-02-11T19:15:00;8.00;99.90
678;DHT22;321;48.814;9.132;2023-02-11T19:17:26;7.90;99.90
678;DHT22;321;48.814;9.132;2023-02-11T19:19:52;7.80;99.90
678;DHT22;321;48.814;9.132;2023-02-11T19:22:17;7.80;99.90
678;DHT22;321;48.814;9.132;2023-02-11T19:24:44;7.90;99.90
678;DHT22;321;48.814;9.132;2023-02-11T19:27:09;7.90;99.90
678;DHT22;321;48.814;9.132;2023-02-11T19:29:35;7.90;99.90